sensor_id;sensor_type;location;lat;lon;timestamp;P1;durP1;ratioP1;P2;durP2;ratioP2
20069;SDS011;10195;50.868;4.382;2024-01-10T00:01:43;10.67;;;5.30;;
20069;SDS011;10195;50.868;4.382;2024-01-10T00:04:08;12.20;;;5.90;;
20069;SDS011;10195;50.868;4.382;2024-01-10T00:06:34;11.67;;;6.23;;
20069;SDS011;10195;50.868;4.382;2024-01-10T00:09:00;13.40;;;5.20;;
20069;SDS011;10195;50.868;4.382;2024-01-10T00:11:25;5.67;;;2.90;;
20069;SDS011;10195;50.868;4.382;2024-01-10T00:13:51;13.30;;;6.23;;
20069;SDS011;10195;50.868;4.382;2024-01-10T00:16:17;12.37;;;6.10;;
20069;SDS011;10195;50.868;4.382;2024-01-10T00:18:42;9.83;;;5.53;;
20069;SDS011;10195;50.868;4.382;2024-01-10T00:21:08;13.63;;;5.20;;
20069;SDS011;10195;50.868;4.382;2024-01-10T00:23:35;14.27;;;6.10;;
20069;SDS011;10195;50.868;4.382;2024-01-10T00:26:00;12.67;;;5.37;;
20069;SDS011;10195;50.868;4.382;2024-01-10T00:28:26;15.53;;;5.77;;
20069;SDS011;10195;50.868;4.382;2024-01-10T00:30:52;12.20;;;5.67;;
20069;SDS011;10195;50.868;4.382;2024-01-10T00:33:17;6.30;;;3.73;;
20069;SDS011;10195;50.868;4.382;2024-01-10T00:35:43;13.27;;;5.97;;
20069;SDS011;10195;50.868;4.382;2024-01-10T00:38:09;12.43;;;6.30;;
20069;SDS011;10195;50.868;4.382;2024-01-10T00:40:35;11.47;;;5.73;;
20069;SDS011;10195;50.868;4.382;2024-01-10T00:43:01;14.27;;;5.20;;
20069;SDS011;10195;50.868;4.382;2024-01-10T00:45:27;7.47;;;4.60;;
20069;SDS011;10195;50.868;4.382;2024-01-10T00:47:54;9.87;;;5.23;;
20069;SDS011;10195;50.868;4.382;2024-01-10T00:50:20;10.33;;;5.07;;
20069;SDS011;10195;50.868;4.382;2024-01-10T00:52:46;14.13;;;5.90;;
20069;SDS011;10195;50.868;4.382;2024-01-10T00:55:12;10.50;;;5.33;;
20069;SDS011;10195;50.868;4.382;2024-01-10T00:57:38;12.83;;;5.57;;
20069;SDS011;10195;50.868;4.382;2024-01-10T01:00:07;16.30;;;6.53;;
20069;SDS011;10195;50.868;4.382;2024-01-10T01:02:34;14.40;;;5.10;;
20069;SDS011;10195;50.868;4.382;2024-01-10T01:05:00;9.97;;;5.27;;
20069;SDS011;10195;50.868;4.382;2024-01-10T01:07:27;10.67;;;5.13;;
20069;SDS011;10195;50.868;4.382;2024-01-10T01:09:53;9.83;;;4.90;;
20069;SDS011;10195;50.868;4.382;2024-01-10T01:12:18;14.53;;;6.00;;
20069;SDS011;10195;50.868;4.382;2024-01-10T01:14:44;9.37;;;2.83;;
20069;SDS011;10195;50.868;4.382;2024-01-10T01:17:10;19.90;;;5.83;;
20069;SDS011;10195;50.868;4.382;2024-01-10T01:19:35;17.77;;;5.73;;
20069;SDS011;10195;50.868;4.382;2024-01-10T01:22:01;11.73;;;5.43;;
20069;SDS011;10195;50.868;4.382;2024-01-10T01:24:27;10.27;;;5.43;;
20069;SDS011;10195;50.868;4.382;2024-01-10T01:26:52;11.70;;;5.43;;
20069;SDS011;10195;50.868;4.382;2024-01-10T01:29:18;17.93;;;5.37;;
20069;SDS011;10195;50.868;4.382;2024-01-10T01:31:45;12.20;;;5.13;;
20069;SDS011;10195;50.868;4.382;2024-01-10T01:34:11;13.70;;;6.13;;
20069;SDS011;10195;50.868;4.382;2024-01-10T01:36:37;13.70;;;6.43;;
20069;SDS011;10195;50.868;4.382;2024-01-10T01:39:02;11.63;;;4.87;;
20069;SDS011;10195;50.868;4.382;2024-01-10T01:41:28;16.17;;;6.07;;
20069;SDS011;10195;50.868;4.382;2024-01-10T01:43:54;13.97;;;6.50;;
20069;SDS011;10195;50.868;4.382;2024-01-10T01:46:19;14.20;;;5.77;;
20069;SDS011;10195;50.868;4.382;2024-01-10T01:48:45;13.07;;;6.10;;
20069;SDS011;10195;50.868;4.382;2024-01-10T01:51:12;16.00;;;6.37;;
20069;SDS011;10195;50.868;4.382;2024-01-10T01:53:39;14.40;;;5.17;;
20069;SDS011;10195;50.868;4.382;2024-01-10T01:56:07;14.60;;;6.13;;
20069;SDS011;10195;50.868;4.382;2024-01-10T01:58:35;14.63;;;5.67;;
20069;SDS011;10195;50.868;4.382;2024-01-10T02:01:04;14.33;;;5.90;;
20069;SDS011;10195;50.868;4.382;2024-01-10T02:03:32;17.30;;;6.23;;
20069;SDS011;10195;50.868;4.382;2024-01-10T02:05:59;13.40;;;6.17;;
20069;SDS011;10195;50.868;4.382;2024-01-10T02:08:25;14.20;;;6.20;;
20069;SDS011;10195;50.868;4.382;2024-01-10T02:10:50;14.33;;;6.63;;
20069;SDS011;10195;50.868;4.382;2024-01-10T02:13:16;13.70;;;5.77;;
20069;SDS011;10195;50.868;4.382;2024-01-10T02:15:43;14.03;;;6.43;;
20069;SDS011;10195;50.868;4.382;2024-01-10T02:18:08;16.63;;;6.47;;
20069;SDS011;10195;50.868;4.382;2024-01-10T02:20:39;13.37;;;6.93;;
20069;SDS011;10195;50.868;4.382;2024-01-10T02:23:07;11.30;;;5.53;;
20069;SDS011;10195;50.868;4.382;2024-01-10T02:25:36;15.77;;;6.70;;
20069;SDS011;10195;50.868;4.382;2024-01-10T02:28:02;13.97;;;6.33;;
20069;SDS011;10195;50.868;4.382;2024-01-10T02:30:28;15.90;;;6.00;;
20069;SDS011;10195;50.868;4.382;2024-01-10T02:32:54;14.53;;;6.53;;
20069;SDS011;10195;50.868;4.382;2024-01-10T02:35:19;16.80;;;6.40;;
20069;SDS011;10195;50.868;4.382;2024-01-10T02:37:45;15.97;;;6.57;;
20069;SDS011;10195;50.868;4.382;2024-01-10T02:40:11;19.90;;;6.83;;
20069;SDS011;10195;50.868;4.382;2024-01-10T02:42:37;12.77;;;5.87;;
20069;SDS011;10195;50.868;4.382;2024-01-10T02:45:03;11.10;;;5.77;;
20069;SDS011;10195;50.868;4.382;2024-01-10T02:47:29;10.83;;;6.10;;
20069;SDS011;10195;50.868;4.382;2024-01-10T02:49:55;14.90;;;6.53;;
20069;SDS011;10195;50.868;4.382;2024-01-10T02:52:20;14.53;;;6.17;;
20069;SDS011;10195;50.868;4.382;2024-01-10T02:54:46;16.50;;;6.60;;
20069;SDS011;10195;50.868;4.382;2024-01-10T02:57:12;17.27;;;6.97;;
20069;SDS011;10195;50.868;4.382;2024-01-10T02:59:38;11.53;;;5.93;;
20069;SDS011;10195;50.868;4.382;2024-01-10T03:02:04;14.50;;;6.70;;
20069;SDS011;10195;50.868;4.382;2024-01-10T03:04:29;17.00;;;6.90;;
20069;SDS011;10195;50.868;4.382;2024-01-10T03:06:55;13.50;;;6.33;;
20069;SDS011;10195;50.868;4.382;2024-01-10T03:09:22;13.07;;;6.40;;
20069;SDS011;10195;50.868;4.382;2024-01-10T03:11:48;12.83;;;5.60;;
20069;SDS011;10195;50.868;4.382;2024-01-10T03:14:13;16.27;;;6.57;;
20069;SDS011;10195;50.868;4.382;2024-01-10T03:16:39;8.43;;;4.17;;
20069;SDS011;10195;50.868;4.382;2024-01-10T03:19:05;5.37;;;2.10;;
20069;SDS011;10195;50.868;4.382;2024-01-10T03:21:31;9.77;;;5.07;;
20069;SDS011;10195;50.868;4.382;2024-01-10T03:23:57;14.93;;;6.33;;
20069;SDS011;10195;50.868;4.382;2024-01-10T03:26:24;13.60;;;6.50;;
20069;SDS011;10195;50.868;4.382;2024-01-10T03:28:50;12.97;;;6.07;;
20069;SDS011;10195;50.868;4.382;2024-01-10T03:31:16;12.53;;;6.17;;
20069;SDS011;10195;50.868;4.382;2024-01-10T03:33:42;15.63;;;6.67;;
20069;SDS011;10195;50.868;4.382;2024-01-10T03:36:12;11.67;;;5.97;;
20069;SDS011;10195;50.868;4.382;2024-01-10T03:38:43;6.10;;;3.83;;
20069;SDS011;10195;50.868;4.382;2024-01-10T03:41:13;13.23;;;5.93;;
20069;SDS011;10195;50.868;4.382;2024-01-10T03:43:39;18.40;;;6.57;;
20069;SDS011;10195;50.868;4.382;2024-01-10T03:46:05;13.10;;;6.43;;
20069;SDS011;10195;50.868;4.382;2024-01-10T03:48:30;15.00;;;6.33;;
20069;SDS011;10195;50.868;4.382;2024-01-10T03:50:56;13.73;;;6.80;;
20069;SDS011;10195;50.868;4.382;2024-01-10T03:53:22;15.57;;;6.53;;
20069;SDS011;10195;50.868;4.382;2024-01-10T03:55:48;14.20;;;6.90;;
20069;SDS011;10195;50.868;4.382;2024-01-10T03:58:13;13.63;;;5.87;;
20069;SDS011;10195;50.868;4.382;2024-01-10T04:00:39;11.70;;;6.17;;
20069;SDS011;10195;50.868;4.382;2024-01-10T04:03:04;9.73;;;5.37;;
20069;SDS011;10195;50.868;4.382;2024-01-10T04:05:30;14.13;;;6.90;;
20069;SDS011;10195;50.868;4.382;2024-01-10T04:07:56;14.13;;;6.83;;
20069;SDS011;10195;50.868;4.382;2024-01-10T04:10:22;11.47;;;6.53;;
20069;SDS011;10195;50.868;4.382;2024-01-10T04:12:48;11.93;;;5.50;;
20069;SDS011;10195;50.868;4.382;2024-01-10T04:15:14;12.83;;;6.50;;
20069;SDS011;10195;50.868;4.382;2024-01-10T04:17:39;14.57;;;7.00;;
20069;SDS011;10195;50.868;4.382;2024-01-10T04:20:06;12.40;;;6.20;;
20069;SDS011;10195;50.868;4.382;2024-01-10T04:22:32;11.03;;;5.63;;
20069;SDS011;10195;50.868;4.382;2024-01-10T04:24:58;11.73;;;5.97;;
20069;SDS011;10195;50.868;4.382;2024-01-10T04:27:24;13.17;;;6.37;;
20069;SDS011;10195;50.868;4.382;2024-01-10T04:29:50;9.93;;;4.70;;
20069;SDS011;10195;50.868;4.382;2024-01-10T04:32:16;15.70;;;5.80;;
20069;SDS011;10195;50.868;4.382;2024-01-10T04:34:41;10.93;;;5.83;;
20069;SDS011;10195;50.868;4.382;2024-01-10T04:37:07;13.17;;;5.50;;
20069;SDS011;10195;50.868;4.382;2024-01-10T04:39:36;20.77;;;5.70;;
20069;SDS011;10195;50.868;4.382;2024-01-10T04:42:03;22.00;;;7.00;;
20069;SDS011;10195;50.868;4.382;2024-01-10T04:44:30;14.40;;;5.63;;
20069;SDS011;10195;50.868;4.382;2024-01-10T04:46:55;14.97;;;6.03;;
20069;SDS011;10195;50.868;4.382;2024-01-10T04:49:21;14.37;;;6.27;;
20069;SDS011;10195;50.868;4.382;2024-01-10T04:51:48;9.90;;;5.20;;
20069;SDS011;10195;50.868;4.382;2024-01-10T04:54:13;12.53;;;5.53;;
20069;SDS011;10195;50.868;4.382;2024-01-10T04:56:39;13.17;;;6.33;;
20069;SDS011;10195;50.868;4.382;2024-01-10T04:59:05;15.37;;;6.10;;
20069;SDS011;10195;50.868;4.382;2024-01-10T05:01:31;13.43;;;6.23;;
20069;SDS011;10195;50.868;4.382;2024-01-10T05:03:57;11.20;;;5.90;;
20069;SDS011;10195;50.868;4.382;2024-01-10T05:06:23;6.63;;;3.50;;
20069;SDS011;10195;50.868;4.382;2024-01-10T05:08:49;9.60;;;3.97;;
20069;SDS011;10195;50.868;4.382;2024-01-10T05:11:14;8.07;;;4.57;;
20069;SDS011;10195;50.868;4.382;2024-01-10T05:13:41;3.93;;;2.23;;
20069;SDS011;10195;50.868;4.382;2024-01-10T05:16:09;4.83;;;2.67;;
20069;SDS011;10195;50.868;4.382;2024-01-10T05:18:35;11.57;;;5.57;;
20069;SDS011;10195;50.868;4.382;2024-01-10T05:21:00;8.33;;;3.80;;
20069;SDS011;10195;50.868;4.382;2024-01-10T05:23:27;15.07;;;5.40;;
20069;SDS011;10195;50.868;4.382;2024-01-10T05:25:53;12.83;;;6.30;;
20069;SDS011;10195;50.868;4.382;2024-01-10T05:28:18;13.83;;;6.67;;
20069;SDS011;10195;50.868;4.382;2024-01-10T05:30:44;5.70;;;3.67;;
20069;SDS011;10195;50.868;4.382;2024-01-10T05:33:10;4.20;;;2.77;;
20069;SDS011;10195;50.868;4.382;2024-01-10T05:35:38;9.77;;;5.23;;
20069;SDS011;10195;50.868;4.382;2024-01-10T05:38:04;9.40;;;4.97;;
20069;SDS011;10195;50.868;4.382;2024-01-10T05:40:29;14.23;;;6.73;;
20069;SDS011;10195;50.868;4.382;2024-01-10T05:42:55;11.10;;;5.87;;
20069;SDS011;10195;50.868;4.382;2024-01-10T05:45:21;12.73;;;5.70;;
20069;SDS011;10195;50.868;4.382;2024-01-10T05:47:47;12.30;;;6.70;;
20069;SDS011;10195;50.868;4.382;2024-01-10T05:50:13;13.83;;;6.20;;
20069;SDS011;10195;50.868;4.382;2024-01-10T05:52:39;14.63;;;6.23;;
20069;SDS011;10195;50.868;4.382;2024-01-10T05:55:05;9.00;;;4.43;;
20069;SDS011;10195;50.868;4.382;2024-01-10T05:57:34;14.57;;;6.33;;
20069;SDS011;10195;50.868;4.382;2024-01-10T06:00:00;13.57;;;5.93;;
20069;SDS011;10195;50.868;4.382;2024-01-10T06:02:26;8.33;;;3.63;;
20069;SDS011;10195;50.868;4.382;2024-01-10T06:04:52;13.33;;;4.60;;
20069;SDS011;10195;50.868;4.382;2024-01-10T06:07:18;17.67;;;6.33;;
20069;SDS011;10195;50.868;4.382;2024-01-10T06:09:45;18.07;;;6.50;;
20069;SDS011;10195;50.868;4.382;2024-01-10T06:12:12;11.20;;;5.87;;
20069;SDS011;10195;50.868;4.382;2024-01-10T06:14:38;12.00;;;6.30;;
20069;SDS011;10195;50.868;4.382;2024-01-10T06:17:04;12.80;;;6.00;;
20069;SDS011;10195;50.868;4.382;2024-01-10T06:19:30;10.93;;;5.47;;
20069;SDS011;10195;50.868;4.382;2024-01-10T06:21:56;16.40;;;6.47;;
20069;SDS011;10195;50.868;4.382;2024-01-10T06:24:22;8.80;;;5.23;;
20069;SDS011;10195;50.868;4.382;2024-01-10T06:26:48;16.67;;;5.80;;
20069;SDS011;10195;50.868;4.382;2024-01-10T06:29:14;15.50;;;6.80;;
20069;SDS011;10195;50.868;4.382;2024-01-10T06:31:40;23.90;;;6.50;;
20069;SDS011;10195;50.868;4.382;2024-01-10T06:34:06;12.97;;;6.30;;
20069;SDS011;10195;50.868;4.382;2024-01-10T06:36:31;13.17;;;6.40;;
20069;SDS011;10195;50.868;4.382;2024-01-10T06:38:57;12.20;;;4.70;;
20069;SDS011;10195;50.868;4.382;2024-01-10T06:41:23;15.37;;;6.33;;
20069;SDS011;10195;50.868;4.382;2024-01-10T06:43:51;17.63;;;6.63;;
20069;SDS011;10195;50.868;4.382;2024-01-10T06:46:20;12.07;;;5.87;;
20069;SDS011;10195;50.868;4.382;2024-01-10T06:48:46;11.93;;;5.87;;
20069;SDS011;10195;50.868;4.382;2024-01-10T06:51:12;14.43;;;6.90;;
20069;SDS011;10195;50.868;4.382;2024-01-10T06:53:39;14.67;;;6.27;;
20069;SDS011;10195;50.868;4.382;2024-01-10T06:56:05;15.70;;;6.13;;
20069;SDS011;10195;50.868;4.382;2024-01-10T06:58:32;13.20;;;6.30;;
20069;SDS011;10195;50.868;4.382;2024-01-10T07:00:58;12.80;;;6.27;;
20069;SDS011;10195;50.868;4.382;2024-01-10T07:03:25;14.27;;;6.80;;
20069;SDS011;10195;50.868;4.382;2024-01-10T07:05:51;9.60;;;5.00;;
20069;SDS011;10195;50.868;4.382;2024-01-10T07:08:17;12.47;;;6.43;;
20069;SDS011;10195;50.868;4.382;2024-01-10T07:10:43;14.83;;;5.73;;
20069;SDS011;10195;50.868;4.382;2024-01-10T07:13:09;13.10;;;6.17;;
20069;SDS011;10195;50.868;4.382;2024-01-10T07:15:35;12.57;;;5.67;;
20069;SDS011;10195;50.868;4.382;2024-01-10T07:18:02;13.40;;;6.17;;
20069;SDS011;10195;50.868;4.382;2024-01-10T07:20:28;14.97;;;6.37;;
20069;SDS011;10195;50.868;4.382;2024-01-10T07:22:53;10.97;;;5.37;;
20069;SDS011;10195;50.868;4.382;2024-01-10T07:25:19;13.00;;;6.00;;
20069;SDS011;10195;50.868;4.382;2024-01-10T07:27:47;12.83;;;5.90;;
20069;SDS011;10195;50.868;4.382;2024-01-10T07:30:13;13.77;;;6.13;;
20069;SDS011;10195;50.868;4.382;2024-01-10T07:32:39;10.87;;;5.87;;
20069;SDS011;10195;50.868;4.382;2024-01-10T07:35:08;10.67;;;3.93;;
20069;SDS011;10195;50.868;4.382;2024-01-10T07:37:38;15.90;;;6.37;;
20069;SDS011;10195;50.868;4.382;2024-01-10T07:40:05;10.47;;;4.33;;
20069;SDS011;10195;50.868;4.382;2024-01-10T07:42:38;13.63;;;6.40;;
20069;SDS011;10195;50.868;4.382;2024-01-10T07:45:07;14.97;;;6.30;;
20069;SDS011;10195;50.868;4.382;2024-01-10T07:47:33;17.57;;;6.93;;
20069;SDS011;10195;50.868;4.382;2024-01-10T07:50:03;17.37;;;7.20;;
20069;SDS011;10195;50.868;4.382;2024-01-10T07:52:29;15.67;;;7.17;;
20069;SDS011;10195;50.868;4.382;2024-01-10T07:54:54;26.20;;;6.80;;
20069;SDS011;10195;50.868;4.382;2024-01-10T07:57:20;14.90;;;6.37;;
20069;SDS011;10195;50.868;4.382;2024-01-10T07:59:46;10.07;;;5.37;;
20069;SDS011;10195;50.868;4.382;2024-01-10T08:02:12;14.53;;;7.00;;
20069;SDS011;10195;50.868;4.382;2024-01-10T08:04:38;12.20;;;5.83;;
20069;SDS011;10195;50.868;4.382;2024-01-10T08:07:03;14.57;;;6.20;;
20069;SDS011;10195;50.868;4.382;2024-01-10T08:09:29;14.17;;;6.60;;
20069;SDS011;10195;50.868;4.382;2024-01-10T08:11:55;14.60;;;6.20;;
20069;SDS011;10195;50.868;4.382;2024-01-10T08:14:20;11.30;;;4.73;;
20069;SDS011;10195;50.868;4.382;2024-01-10T08:16:46;15.57;;;6.50;;
20069;SDS011;10195;50.868;4.382;2024-01-10T08:19:12;14.37;;;6.30;;
20069;SDS011;10195;50.868;4.382;2024-01-10T08:21:37;15.20;;;6.40;;
20069;SDS011;10195;50.868;4.382;2024-01-10T08:24:03;11.73;;;6.23;;
20069;SDS011;10195;50.868;4.382;2024-01-10T08:26:30;14.53;;;5.80;;
20069;SDS011;10195;50.868;4.382;2024-01-10T08:28:55;15.73;;;5.53;;
20069;SDS011;10195;50.868;4.382;2024-01-10T08:31:21;15.47;;;6.67;;
20069;SDS011;10195;50.868;4.382;2024-01-10T08:33:47;14.67;;;6.87;;
20069;SDS011;10195;50.868;4.382;2024-01-10T08:36:13;17.23;;;6.67;;
20069;SDS011;10195;50.868;4.382;2024-01-10T08:38:42;13.63;;;6.57;;
20069;SDS011;10195;50.868;4.382;2024-01-10T08:41:07;13.90;;;5.47;;
20069;SDS011;10195;50.868;4.382;2024-01-10T08:43:36;12.57;;;6.40;;
20069;SDS011;10195;50.868;4.382;2024-01-10T08:46:03;6.43;;;3.53;;
20069;SDS011;10195;50.868;4.382;2024-01-10T08:48:29;8.90;;;4.90;;
20069;SDS011;10195;50.868;4.382;2024-01-10T08:50:54;13.73;;;6.93;;
20069;SDS011;10195;50.868;4.382;2024-01-10T08:53:21;17.57;;;6.70;;
20069;SDS011;10195;50.868;4.382;2024-01-10T08:55:47;13.47;;;6.50;;
20069;SDS011;10195;50.868;4.382;2024-01-10T08:58:13;16.07;;;7.30;;
20069;SDS011;10195;50.868;4.382;2024-01-10T09:00:39;12.60;;;6.10;;
20069;SDS011;10195;50.868;4.382;2024-01-10T09:03:05;14.57;;;6.73;;
20069;SDS011;10195;50.868;4.382;2024-01-10T09:05:30;13.07;;;6.93;;
20069;SDS011;10195;50.868;4.382;2024-01-10T09:07:56;13.60;;;7.07;;
20069;SDS011;10195;50.868;4.382;2024-01-10T09:10:22;15.03;;;7.20;;
20069;SDS011;10195;50.868;4.382;2024-01-10T09:12:48;16.23;;;7.50;;
20069;SDS011;10195;50.868;4.382;2024-01-10T09:15:14;16.67;;;8.17;;
20069;SDS011;10195;50.868;4.382;2024-01-10T09:17:43;12.93;;;6.60;;
20069;SDS011;10195;50.868;4.382;2024-01-10T09:20:12;18.53;;;7.40;;
20069;SDS011;10195;50.868;4.382;2024-01-10T09:22:38;19.67;;;6.87;;
20069;SDS011;10195;50.868;4.382;2024-01-10T09:25:05;20.63;;;6.07;;
20069;SDS011;10195;50.868;4.382;2024-01-10T09:27:31;12.37;;;6.13;;
20069;SDS011;10195;50.868;4.382;2024-01-10T09:29:59;16.80;;;6.23;;
20069;SDS011;10195;50.868;4.382;2024-01-10T09:32:26;10.47;;;6.07;;
20069;SDS011;10195;50.868;4.382;2024-01-10T09:34:53;12.47;;;7.03;;
20069;SDS011;10195;50.868;4.382;2024-01-10T09:37:19;13.13;;;6.77;;
20069;SDS011;10195;50.868;4.382;2024-01-10T09:39:45;16.73;;;7.63;;
20069;SDS011;10195;50.868;4.382;2024-01-10T09:42:10;14.60;;;6.50;;
20069;SDS011;10195;50.868;4.382;2024-01-10T09:44:36;15.20;;;6.60;;
20069;SDS011;10195;50.868;4.382;2024-01-10T09:47:02;15.90;;;7.73;;
20069;SDS011;10195;50.868;4.382;2024-01-10T09:49:28;17.97;;;7.83;;
20069;SDS011;10195;50.868;4.382;2024-01-10T09:51:57;18.23;;;7.30;;
20069;SDS011;10195;50.868;4.382;2024-01-10T09:54:26;15.47;;;7.97;;
20069;SDS011;10195;50.868;4.382;2024-01-10T09:56:55;18.90;;;7.70;;
20069;SDS011;10195;50.868;4.382;2024-01-10T09:59:22;16.10;;;7.20;;
20069;SDS011;10195;50.868;4.382;2024-01-10T10:01:48;18.40;;;7.87;;
20069;SDS011;10195;50.868;4.382;2024-01-10T10:04:16;17.13;;;7.23;;
20069;SDS011;10195;50.868;4.382;2024-01-10T10:06:44;13.00;;;7.13;;
20069;SDS011;10195;50.868;4.382;2024-01-10T10:09:10;14.50;;;7.43;;
20069;SDS011;10195;50.868;4.382;2024-01-10T10:11:37;12.00;;;6.33;;
20069;SDS011;10195;50.868;4.382;2024-01-10T10:14:16;14.77;;;6.80;;
20069;SDS011;10195;50.868;4.382;2024-01-10T10:16:43;15.67;;;7.30;;
20069;SDS011;10195;50.868;4.382;2024-01-10T10:19:12;16.77;;;7.50;;
20069;SDS011;10195;50.868;4.382;2024-01-10T10:21:50;17.83;;;7.93;;
20069;SDS011;10195;50.868;4.382;2024-01-10T10:24:16;16.90;;;7.70;;
20069;SDS011;10195;50.868;4.382;2024-01-10T10:26:42;19.67;;;8.00;;
20069;SDS011;10195;50.868;4.382;2024-01-10T10:29:08;18.40;;;8.50;;
20069;SDS011;10195;50.868;4.382;2024-01-10T10:31:34;13.17;;;7.70;;
20069;SDS011;10195;50.868;4.382;2024-01-10T10:34:00;17.23;;;8.10;;
20069;SDS011;10195;50.868;4.382;2024-01-10T10:36:30;14.10;;;7.83;;
20069;SDS011;10195;50.868;4.382;2024-01-10T10:38:58;20.90;;;8.13;;
20069;SDS011;10195;50.868;4.382;2024-01-10T10:41:28;16.20;;;8.17;;
20069;SDS011;10195;50.868;4.382;2024-01-10T10:43:57;16.97;;;8.37;;
20069;SDS011;10195;50.868;4.382;2024-01-10T10:46:23;18.10;;;6.87;;
20069;SDS011;10195;50.868;4.382;2024-01-10T10:48:52;22.53;;;9.80;;
20069;SDS011;10195;50.868;4.382;2024-01-10T10:51:22;13.70;;;6.53;;
20069;SDS011;10195;50.868;4.382;2024-01-10T10:53:57;17.83;;;8.40;;
20069;SDS011;10195;50.868;4.382;2024-01-10T10:56:25;17.27;;;8.20;;
20069;SDS011;10195;50.868;4.382;2024-01-10T10:58:57;18.67;;;8.27;;
20069;SDS011;10195;50.868;4.382;2024-01-10T11:01:25;17.33;;;7.17;;
20069;SDS011;10195;50.868;4.382;2024-01-10T11:03:52;17.93;;;8.73;;
20069;SDS011;10195;50.868;4.382;2024-01-10T11:06:20;24.03;;;8.00;;
20069;SDS011;10195;50.868;4.382;2024-01-10T11:08:48;16.43;;;8.10;;
20069;SDS011;10195;50.868;4.382;2024-01-10T11:19:22;19.00;;;8.53;;
20069;SDS011;10195;50.868;4.382;2024-01-10T11:25:11;15.83;;;9.07;;
20069;SDS011;10195;50.868;4.382;2024-01-10T11:27:37;18.90;;;8.77;;
20069;SDS011;10195;50.868;4.382;2024-01-10T11:30:02;19.30;;;9.50;;
20069;SDS011;10195;50.868;4.382;2024-01-10T11:32:31;21.00;;;9.23;;
20069;SDS011;10195;50.868;4.382;2024-01-10T11:34:59;18.60;;;8.40;;
20069;SDS011;10195;50.868;4.382;2024-01-10T11:37:44;12.17;;;6.60;;
20069;SDS011;10195;50.868;4.382;2024-01-10T11:40:14;13.80;;;4.93;;
20069;SDS011;10195;50.868;4.382;2024-01-10T11:42:46;13.37;;;6.80;;
20069;SDS011;10195;50.868;4.382;2024-01-10T11:48:00;10.40;;;5.60;;
20069;SDS011;10195;50.868;4.382;2024-01-10T11:50:25;16.90;;;7.93;;
20069;SDS011;10195;50.868;4.382;2024-01-10T11:52:55;16.87;;;8.47;;
20069;SDS011;10195;50.868;4.382;2024-01-10T11:58:12;17.53;;;8.90;;
20069;SDS011;10195;50.868;4.382;2024-01-10T12:00:38;18.90;;;8.93;;
20069;SDS011;10195;50.868;4.382;2024-01-10T12:03:06;21.27;;;8.20;;
20069;SDS011;10195;50.868;4.382;2024-01-10T12:05:42;14.67;;;7.37;;
20069;SDS011;10195;50.868;4.382;2024-01-10T12:08:08;18.30;;;9.80;;
20069;SDS011;10195;50.868;4.382;2024-01-10T12:10:34;21.10;;;8.63;;
20069;SDS011;10195;50.868;4.382;2024-01-10T12:13:04;25.70;;;8.10;;
20069;SDS011;10195;50.868;4.382;2024-01-10T12:15:30;21.13;;;9.07;;
20069;SDS011;10195;50.868;4.382;2024-01-10T12:17:55;14.60;;;7.30;;
20069;SDS011;10195;50.868;4.382;2024-01-10T12:20:21;16.97;;;8.27;;
20069;SDS011;10195;50.868;4.382;2024-01-10T12:22:47;17.23;;;8.47;;
20069;SDS011;10195;50.868;4.382;2024-01-10T12:25:12;17.63;;;8.37;;
20069;SDS011;10195;50.868;4.382;2024-01-10T12:27:39;19.63;;;9.13;;
20069;SDS011;10195;50.868;4.382;2024-01-10T12:30:05;21.03;;;9.00;;
20069;SDS011;10195;50.868;4.382;2024-01-10T12:32:32;19.27;;;9.17;;
20069;SDS011;10195;50.868;4.382;2024-01-10T12:35:01;18.77;;;9.47;;
20069;SDS011;10195;50.868;4.382;2024-01-10T12:37:28;16.03;;;8.13;;
20069;SDS011;10195;50.868;4.382;2024-01-10T12:39:54;21.00;;;9.27;;
20069;SDS011;10195;50.868;4.382;2024-01-10T12:42:21;17.97;;;9.20;;
20069;SDS011;10195;50.868;4.382;2024-01-10T12:44:47;20.83;;;8.73;;
20069;SDS011;10195;50.868;4.382;2024-01-10T12:47:20;20.53;;;9.33;;
20069;SDS011;10195;50.868;4.382;2024-01-10T12:49:46;20.83;;;9.10;;
20069;SDS011;10195;50.868;4.382;2024-01-10T12:52:12;18.00;;;7.17;;
20069;SDS011;10195;50.868;4.382;2024-01-10T12:54:38;14.13;;;8.07;;
20069;SDS011;10195;50.868;4.382;2024-01-10T12:57:05;20.23;;;9.87;;
20069;SDS011;10195;50.868;4.382;2024-01-10T12:59:31;18.97;;;9.07;;
20069;SDS011;10195;50.868;4.382;2024-01-10T13:01:57;17.73;;;8.43;;
20069;SDS011;10195;50.868;4.382;2024-01-10T13:04:23;22.13;;;9.13;;
20069;SDS011;10195;50.868;4.382;2024-01-10T13:06:49;20.03;;;9.93;;
20069;SDS011;10195;50.868;4.382;2024-01-10T13:09:15;21.57;;;8.37;;
20069;SDS011;10195;50.868;4.382;2024-01-10T13:11:41;20.60;;;9.53;;
20069;SDS011;10195;50.868;4.382;2024-01-10T13:14:07;18.87;;;8.73;;
20069;SDS011;10195;50.868;4.382;2024-01-10T13:16:34;18.90;;;9.43;;
20069;SDS011;10195;50.868;4.382;2024-01-10T13:19:00;26.73;;;10.37;;
20069;SDS011;10195;50.868;4.382;2024-01-10T13:21:25;22.40;;;8.90;;
20069;SDS011;10195;50.868;4.382;2024-01-10T13:23:51;17.73;;;8.37;;
20069;SDS011;10195;50.868;4.382;2024-01-10T13:26:17;16.60;;;8.73;;
20069;SDS011;10195;50.868;4.382;2024-01-10T13:28:43;18.37;;;9.33;;
20069;SDS011;10195;50.868;4.382;2024-01-10T13:31:09;17.77;;;8.93;;
20069;SDS011;10195;50.868;4.382;2024-01-10T13:33:35;18.03;;;9.50;;
20069;SDS011;10195;50.868;4.382;2024-01-10T13:36:02;22.90;;;9.50;;
20069;SDS011;10195;50.868;4.382;2024-01-10T13:38:29;19.93;;;9.43;;
20069;SDS011;10195;50.868;4.382;2024-01-10T13:40:58;18.30;;;9.13;;
20069;SDS011;10195;50.868;4.382;2024-01-10T13:43:24;19.03;;;8.60;;
20069;SDS011;10195;50.868;4.382;2024-01-10T13:45:49;22.00;;;9.83;;
20069;SDS011;10195;50.868;4.382;2024-01-10T13:48:15;16.33;;;6.83;;
20069;SDS011;10195;50.868;4.382;2024-01-10T13:50:41;18.30;;;9.00;;
20069;SDS011;10195;50.868;4.382;2024-01-10T13:53:10;17.30;;;9.60;;
20069;SDS011;10195;50.868;4.382;2024-01-10T13:55:35;20.03;;;9.30;;
20069;SDS011;10195;50.868;4.382;2024-01-10T13:58:04;24.57;;;10.23;;
20069;SDS011;10195;50.868;4.382;2024-01-10T14:00:29;21.97;;;9.87;;
20069;SDS011;10195;50.868;4.382;2024-01-10T14:02:55;22.17;;;9.63;;
20069;SDS011;10195;50.868;4.382;2024-01-10T14:05:24;17.77;;;9.07;;
20069;SDS011;10195;50.868;4.382;2024-01-10T14:07:51;26.87;;;10.70;;
20069;SDS011;10195;50.868;4.382;2024-01-10T14:10:17;20.97;;;9.90;;
20069;SDS011;10195;50.868;4.382;2024-01-10T14:12:43;17.63;;;8.93;;
20069;SDS011;10195;50.868;4.382;2024-01-10T14:15:10;17.23;;;9.10;;
20069;SDS011;10195;50.868;4.382;2024-01-10T14:17:36;22.63;;;10.07;;
20069;SDS011;10195;50.868;4.382;2024-01-10T14:20:02;20.47;;;8.83;;
20069;SDS011;10195;50.868;4.382;2024-01-10T14:22:28;26.27;;;9.80;;
20069;SDS011;10195;50.868;4.382;2024-01-10T14:24:53;20.63;;;9.93;;
20069;SDS011;10195;50.868;4.382;2024-01-10T14:27:19;20.10;;;9.80;;
20069;SDS011;10195;50.868;4.382;2024-01-10T14:29:45;19.70;;;9.63;;
20069;SDS011;10195;50.868;4.382;2024-01-10T14:32:11;21.03;;;9.43;;
20069;SDS011;10195;50.868;4.382;2024-01-10T14:34:40;23.93;;;10.47;;
20069;SDS011;10195;50.868;4.382;2024-01-10T14:37:06;23.43;;;10.50;;
20069;SDS011;10195;50.868;4.382;2024-01-10T14:39:33;18.50;;;9.77;;
20069;SDS011;10195;50.868;4.382;2024-01-10T14:42:04;18.13;;;9.00;;
20069;SDS011;10195;50.868;4.382;2024-01-10T14:44:34;25.30;;;10.90;;
20069;SDS011;10195;50.868;4.382;2024-01-10T14:47:00;19.20;;;9.50;;
20069;SDS011;10195;50.868;4.382;2024-01-10T14:49:26;20.23;;;9.47;;